Time;durP1;ratioP1;P1;durP2;ratioP2;P2;SDS_P1;SDS_P2;PMS_P1;PMS_P2;Temp;Humidity;BMP_temperature;BMP_pressure;BME280_temperature;BME280_humidity;BME280_pressure;Samples;Min_cycle;Max_cycle;Signal;HPM_P1;HPM_P2
2022/11/14 00:00:13;;;;;;;50.80;26.00;;;;;;;5.63;100.00;101194.81;5186038;28;20380;-77
2022/11/14 00:02:43;;;;;;;56.00;26.45;;;;;;;5.56;100.00;101188.78;5188705;28;20025;-77
2022/11/14 00:05:13;;;;;;;52.45;25.30;;;;;;;5.58;100.00;101184.47;5188623;28;20033;-77
2022/11/14 00:07:44;;;;;;;57.95;27.67;;;;;;;5.60;100.00;101179.28;5181261;28;20046;-77
2022/11/14 00:10:15;;;;;;;54.58;25.70;;;;;;;5.54;100.00;101179.31;5183979;28;20025;-77
2022/11/14 00:12:46;;;;;;;53.90;26.05;;;;;;;5.46;100.00;101178.50;5185964;28;20045;-77
2022/11/14 00:15:16;;;;;;;50.35;24.90;;;;;;;5.38;100.00;101175.09;5186353;28;20025;-77
2022/11/14 00:17:46;;;;;;;51.88;25.27;;;;;;;5.08;100.00;101172.63;5185866;28;20033;-76
2022/11/14 00:20:17;;;;;;;47.22;24.17;;;;;;;4.98;100.00;101176.09;5191156;28;20109;-77
2022/11/14 00:22:47;;;;;;;49.00;23.70;;;;;;;5.00;100.00;101169.19;5191453;28;20617;-76
2022/11/14 00:25:17;;;;;;;49.05;25.23;;;;;;;5.05;100.00;101159.69;5191608;28;20030;-77
2022/11/14 00:27:48;;;;;;;43.53;22.20;;;;;;;4.97;100.00;101161.44;5191134;28;20049;-77
2022/11/14 00:30:18;;;;;;;46.45;22.98;;;;;;;4.78;100.00;101162.38;5190654;28;20022;-76
2022/11/14 00:32:48;;;;;;;44.15;22.67;;;;;;;4.70;100.00;101148.59;5185690;28;20022;-77
2022/11/14 00:35:18;;;;;;;46.13;23.33;;;;;;;4.73;100.00;101156.34;5188256;28;20044;-77
2022/11/14 00:37:49;;;;;;;41.97;21.80;;;;;;;4.54;100.00;101146.03;5183194;28;20025;-77
2022/11/14 00:40:19;;;;;;;46.72;22.48;;;;;;;4.54;100.00;101141.75;5188126;28;20052;-77
2022/11/14 00:42:49;;;;;;;49.08;23.63;;;;;;;4.45;100.00;101141.75;5195417;28;20031;-77
2022/11/14 00:45:20;;;;;;;50.25;24.17;;;;;;;4.40;100.00;101147.78;5191834;28;20048;-77
2022/11/14 00:47:50;;;;;;;55.22;26.85;;;;;;;4.58;100.00;101138.28;5191199;28;20377;-77
2022/11/14 00:50:21;;;;;;;64.13;30.05;;;;;;;4.74;100.00;101133.91;5191186;28;20032;-76
2022/11/14 00:52:51;;;;;;;69.10;29.95;;;;;;;4.86;100.00;101132.16;5192123;28;20038;-77
2022/11/14 00:55:21;;;;;;;73.30;31.33;;;;;;;5.03;100.00;101125.19;5191161;28;20079;-77
2022/11/14 00:57:52;;;;;;;71.07;32.35;;;;;;;5.15;100.00;101127.69;5189751;28;20033;-76
2022/11/14 01:00:22;;;;;;;73.40;31.90;;;;;;;5.20;100.00;101119.91;5187171;28;20104;-77
2022/11/14 01:02:55;;;;;;;73.30;31.58;;;;;;;5.28;100.00;101113.81;5191604;28;20033;-77
2022/11/14 01:05:26;;;;;;;74.65;32.10;;;;;;;5.42;100.00;101112.00;5191979;28;20090;-77
2022/11/14 01:07:56;;;;;;;73.45;31.58;;;;;;;5.46;100.00;101117.16;5183644;28;20029;-77
2022/11/14 01:10:26;;;;;;;77.55;34.15;;;;;;;5.50;100.00;101110.22;5188896;28;20451;-77
2022/11/14 01:12:57;;;;;;;74.75;32.97;;;;;;;5.48;100.00;101106.75;5188398;28;20113;-77
2022/11/14 01:15:27;;;;;;;72.78;33.88;;;;;;;5.50;100.00;101107.63;5192342;28;20029;-77
2022/11/14 01:17:57;;;;;;;77.75;34.50;;;;;;;5.49;100.00;101096.41;5188921;28;20033;-77
2022/11/14 01:20:28;;;;;;;76.07;33.30;;;;;;;5.58;100.00;101100.66;5192596;28;20451;-78
2022/11/14 01:22:58;;;;;;;73.20;33.28;;;;;;;5.54;100.00;101097.22;5173773;28;20061;-77
2022/11/14 01:25:28;;;;;;;73.95;33.85;;;;;;;5.65;100.00;101102.31;5180578;28;20083;-77
2022/11/14 01:27:59;;;;;;;70.90;32.65;;;;;;;5.68;100.00;101090.22;5180969;28;20628;-77
2022/11/14 01:30:29;;;;;;;66.18;31.45;;;;;;;5.72;100.00;101096.25;5187303;28;20029;-77
2022/11/14 01:32:59;;;;;;;75.65;32.78;;;;;;;5.76;100.00;101095.34;5188855;28;20032;-78
2022/11/14 01:35:31;;;;;;;76.82;34.45;;;;;;;5.74;100.00;101102.28;5192025;28;20634;-77
2022/11/14 01:38:02;;;;;;;71.82;32.17;;;;;;;5.74;100.00;101095.34;5181359;28;20100;-77
2022/11/14 01:40:32;;;;;;;71.68;32.15;;;;;;;5.75;100.00;101091.88;5188255;28;20482;-77
2022/11/14 01:43:15;;;;;;;73.15;33.10;;;;;;;5.66;100.00;101078.13;5188327;28;20044;-77
2022/11/14 01:45:51;;;;;;;77.18;33.10;;;;;;;5.71;100.00;101078.97;5186439;28;20021;-77
2022/11/14 01:48:37;;;;;;;82.07;33.17;;;;;;;5.70;100.00;101072.91;5189388;28;20018;-77
2022/11/14 01:51:17;;;;;;;71.82;33.85;;;;;;;5.66;100.00;101068.63;5184101;28;20033;-76
2022/11/14 01:53:52;;;;;;;73.53;31.90;;;;;;;5.66;100.00;101060.84;5179316;28;20029;-77
2022/11/14 01:56:34;;;;;;;71.07;32.40;;;;;;;5.66;100.00;101059.97;5188034;28;20032;-77
2022/11/14 01:59:07;;;;;;;79.05;32.63;;;;;;;5.66;100.00;101057.38;5192237;28;20307;-77
2022/11/14 02:01:44;;;;;;;76.00;33.20;;;;;;;5.65;100.00;101060.84;5185435;28;20487;-77
2022/11/14 02:04:21;;;;;;;70.53;32.42;;;;;;;5.59;100.00;101043.59;5184015;28;20084;-77
2022/11/14 02:06:56;;;;;;;69.45;31.70;;;;;;;5.58;100.00;101047.06;5183860;28;20029;-77
2022/11/14 02:09:30;;;;;;;69.82;31.75;;;;;;;5.65;100.00;101043.56;5184595;28;20033;-77
2022/11/14 02:12:03;;;;;;;71.45;32.53;;;;;;;5.67;100.00;101047.00;5183413;28;20030;-77
2022/11/14 02:14:35;;;;;;;67.97;31.10;;;;;;;5.58;100.00;101041.03;5184402;28;20395;-77
2022/11/14 02:17:06;;;;;;;63.13;30.27;;;;;;;5.46;100.00;101043.72;5183952;28;20233;-77
2022/11/14 02:19:43;;;;;;;57.10;27.77;;;;;;;5.31;100.00;101051.59;5191948;28;20040;-77
2022/11/14 02:22:14;;;;;;;61.55;29.00;;;;;;;5.31;100.00;101049.00;5189635;28;20685;-77
2022/11/14 02:24:44;;;;;;;64.18;28.80;;;;;;;5.36;100.00;101036.88;5190590;28;20029;-77
2022/11/14 02:27:15;;;;;;;65.82;28.77;;;;;;;5.30;100.00;101039.50;5188629;28;20387;-77
2022/11/14 02:29:45;;;;;;;54.75;27.13;;;;;;;5.29;100.00;101037.78;5190318;28;20507;-77
2022/11/14 02:32:16;;;;;;;65.47;28.63;;;;;;;5.31;100.00;101030.88;5189637;28;20483;-77
2022/11/14 02:34:46;;;;;;;54.85;27.25;;;;;;;5.33;100.00;101031.72;5189124;28;20387;-77
2022/11/14 02:37:16;;;;;;;62.30;29.02;;;;;;;5.32;100.00;101029.16;5187110;28;20107;-77
2022/11/14 02:39:47;;;;;;;62.53;27.27;;;;;;;5.26;100.00;101030.06;5188964;28;20072;-77
2022/11/14 02:42:17;;;;;;;59.28;28.95;;;;;;;5.22;100.00;101028.34;5190362;28;20025;-76
2022/11/14 02:44:47;;;;;;;63.25;29.33;;;;;;;5.28;100.00;101019.66;5189643;28;20061;-77
2022/11/14 02:47:18;;;;;;;66.72;29.70;;;;;;;5.25;100.00;101017.09;5186502;28;20390;-77
2022/11/14 02:49:48;;;;;;;66.30;30.23;;;;;;;5.21;100.00;101018.88;5189436;28;20029;-77
2022/11/14 02:52:18;;;;;;;61.55;28.80;;;;;;;5.24;100.00;101007.59;5190369;28;20061;-76
2022/11/14 02:54:49;;;;;;;61.40;27.90;;;;;;;5.19;100.00;101006.78;5187514;28;20026;-77
2022/11/14 02:57:19;;;;;;;64.15;29.35;;;;;;;5.16;100.00;100996.44;5189319;28;20033;-77
2022/11/14 02:59:49;;;;;;;58.08;28.67;;;;;;;5.10;100.00;101012.00;5185425;28;20604;-77
2022/11/14 03:02:20;;;;;;;56.80;27.25;;;;;;;5.14;100.00;101016.31;5188199;28;20116;-76
2022/11/14 03:04:50;;;;;;;56.28;26.80;;;;;;;5.13;100.00;101002.50;5189588;28;20021;-76
2022/11/14 03:07:20;;;;;;;58.55;28.17;;;;;;;5.26;100.00;101009.31;5184063;28;20025;-76
2022/11/14 03:09:51;;;;;;;58.33;28.52;;;;;;;5.31;100.00;101010.13;5189526;28;20038;-77
2022/11/14 03:12:21;;;;;;;55.92;27.52;;;;;;;5.33;100.00;101008.38;5188984;28;20240;-77
2022/11/14 03:14:51;;;;;;;55.25;26.27;;;;;;;5.48;100.00;101003.97;5190163;28;20038;-76
2022/11/14 03:17:23;;;;;;;59.67;28.73;;;;;;;5.49;100.00;101010.00;5187463;28;20499;-76
2022/11/14 03:19:53;;;;;;;60.28;28.38;;;;;;;5.46;100.00;101010.91;5190039;28;20037;-77
2022/11/14 03:22:24;;;;;;;59.78;29.20;;;;;;;5.48;100.00;101016.06;5191572;28;20034;-77
2022/11/14 03:24:54;;;;;;;59.85;27.48;;;;;;;5.51;100.00;101013.44;5193131;28;20092;-76
2022/11/14 03:27:24;;;;;;;58.65;28.30;;;;;;;5.56;100.00;101012.53;5191795;28;20547;-77
2022/11/14 03:29:55;;;;;;;56.70;27.63;;;;;;;5.55;100.00;101008.22;5193428;28;20025;-77
2022/11/14 03:32:25;;;;;;;60.42;27.58;;;;;;;5.56;100.00;101006.50;5191997;28;20033;-77
2022/11/14 03:34:56;;;;;;;59.88;27.08;;;;;;;5.54;100.00;100990.94;5192457;28;20567;-77
2022/11/14 03:37:26;;;;;;;55.88;27.05;;;;;;;5.64;100.00;100999.50;5183483;28;20032;-77
2022/11/14 03:39:56;;;;;;;53.08;26.25;;;;;;;5.70;100.00;100991.66;5186723;28;20033;-76
2022/11/14 03:42:26;;;;;;;56.80;26.92;;;;;;;5.66;100.00;100987.38;5193781;28;20029;-77
2022/11/14 03:44:57;;;;;;;53.42;25.77;;;;;;;5.73;100.00;100991.66;5193282;28;20025;-77
2022/11/14 03:47:27;;;;;;;57.55;26.02;;;;;;;5.75;100.00;100976.94;5184435;28;20457;-77
2022/11/14 03:49:57;;;;;;;47.85;24.73;;;;;;;5.83;100.00;100977.72;5192917;28;20028;-76
2022/11/14 03:52:28;;;;;;;53.63;26.15;;;;;;;5.94;100.00;100965.53;5189765;28;20030;-77
2022/11/14 03:54:58;;;;;;;50.92;26.00;;;;;;;5.98;100.00;100965.47;5189220;28;20073;-77
2022/11/14 03:57:28;;;;;;;47.92;25.15;;;;;;;5.96;100.00;100962.06;5187375;28;20117;-77
2022/11/14 03:59:58;;;;;;;49.50;26.15;;;;;;;5.93;100.00;100962.06;5185541;28;20018;-76
2022/11/14 04:02:29;;;;;;;53.38;25.83;;;;;;;5.94;100.00;100958.59;5186556;28;20030;-77
2022/11/14 04:04:59;;;;;;;50.58;26.35;;;;;;;5.95;100.00;100957.72;5191891;28;20472;-77
2022/11/14 04:07:29;;;;;;;59.40;27.70;;;;;;;5.96;100.00;100956.00;5186195;28;20040;-76
2022/11/14 04:10:00;;;;;;;57.70;27.33;;;;;;;5.98;100.00;100962.00;5193530;28;20034;-77
2022/11/14 04:12:30;;;;;;;55.58;26.92;;;;;;;5.98;100.00;100962.00;5190196;28;20069;-76
2022/11/14 04:15:00;;;;;;;53.15;26.65;;;;;;;5.97;100.00;100957.72;5187420;28;20032;-77
2022/11/14 04:17:30;;;;;;;55.15;27.05;;;;;;;5.96;100.00;100959.47;5189862;28;20056;-76
2022/11/14 04:20:01;;;;;;;52.50;24.52;;;;;;;6.12;100.00;100953.19;5189138;28;20121;-77
2022/11/14 04:22:31;;;;;;;52.80;26.02;;;;;;;6.03;100.00;100955.03;5192762;28;20018;-77
2022/11/14 04:25:02;;;;;;;52.95;26.45;;;;;;;6.07;100.00;100942.03;5190117;28;20524;-77
2022/11/14 04:27:32;;;;;;;53.40;26.65;;;;;;;6.13;100.00;100938.50;5192133;28;20403;-77
2022/11/14 04:30:03;;;;;;;52.58;26.30;;;;;;;6.33;100.00;100933.91;5190147;28;20632;-76
2022/11/14 04:32:34;;;;;;;54.72;26.42;;;;;;;6.33;100.00;100931.31;5193090;28;20100;-77
2022/11/14 04:35:04;;;;;;;51.65;26.30;;;;;;;6.29;100.00;100919.28;5190004;28;20117;-77
2022/11/14 04:37:37;;;;;;;50.22;26.08;;;;;;;6.32;100.00;100924.41;5180948;28;20030;-77
2022/11/14 04:40:08;;;;;;;49.97;25.70;;;;;;;6.26;100.00;100919.31;5192884;28;20051;-77
2022/11/14 04:42:38;;;;;;;49.88;26.05;;;;;;;6.27;100.00;100926.22;5190330;28;20047;-76
2022/11/14 04:45:09;;;;;;;51.35;25.25;;;;;;;6.27;100.00;100919.28;5193531;28;20499;-76
2022/11/14 04:47:43;;;;;;;55.63;26.48;;;;;;;6.34;100.00;100922.66;5189475;28;20021;-77
2022/11/14 04:50:13;;;;;;;56.13;26.60;;;;;;;6.37;100.00;100922.59;5190727;28;20125;-77
2022/11/14 04:52:43;;;;;;;52.60;27.20;;;;;;;6.48;100.00;100915.53;5187846;28;20105;-77
2022/11/14 04:55:14;;;;;;;51.05;27.33;;;;;;;6.43;100.00;100907.81;5192141;28;20396;-76
2022/11/14 04:57:45;;;;;;;58.53;28.05;;;;;;;6.49;100.00;100905.16;5190706;28;20041;-77
2022/11/14 05:00:16;;;;;;;59.58;28.27;;;;;;;6.46;100.00;100917.31;5188283;28;20074;-76
2022/11/14 05:02:46;;;;;;;58.00;27.63;;;;;;;6.37;100.00;100910.50;5192025;28;20446;-77
2022/11/14 05:05:16;;;;;;;59.55;28.30;;;;;;;6.43;100.00;100901.78;5191223;28;20100;-77
2022/11/14 05:07:47;;;;;;;59.17;28.20;;;;;;;6.31;100.00;100896.75;5187885;28;20483;-74
2022/11/14 05:10:17;;;;;;;55.13;26.15;;;;;;;6.33;100.00;100894.97;5184081;28;20026;-76
2022/11/14 05:12:47;;;;;;;55.55;27.23;;;;;;;6.33;100.00;100893.25;5182459;28;20029;-77
2022/11/14 05:15:18;;;;;;;54.55;27.02;;;;;;;6.31;100.00;100889.84;5191154;28;20037;-78
2022/11/14 05:17:48;;;;;;;56.83;28.35;;;;;;;6.24;100.00;100892.53;5191086;28;20037;-76
2022/11/14 05:20:18;;;;;;;58.88;26.58;;;;;;;6.26;100.00;100890.78;5190924;28;20030;-77
2022/11/14 05:22:52;;;;;;;52.53;27.25;;;;;;;6.13;100.00;100890.06;5190901;28;20048;-77
2022/11/14 05:25:22;;;;;;;56.13;28.08;;;;;;;6.10;100.00;100887.50;5190842;28;20053;-76
2022/11/14 05:27:53;;;;;;;51.58;25.25;;;;;;;6.05;100.00;100896.25;5190078;28;20115;-77
2022/11/14 05:30:23;;;;;;;56.15;27.38;;;;;;;6.02;100.00;100898.84;5189619;28;20095;-77
2022/11/14 05:32:53;;;;;;;52.28;26.13;;;;;;;6.22;100.00;100896.88;5190740;28;20037;-77
2022/11/14 05:35:24;;;;;;;53.00;26.17;;;;;;;6.11;100.00;100885.78;5190112;28;20529;-77
2022/11/14 05:37:54;;;;;;;50.53;23.60;;;;;;;6.15;100.00;100887.44;5182262;28;20037;-76
2022/11/14 05:40:24;;;;;;;47.13;25.00;;;;;;;6.21;100.00;100890.81;5189834;28;20195;-77
2022/11/14 05:42:55;;;;;;;45.58;23.95;;;;;;;6.27;100.00;100890.72;5191868;28;20034;-76
2022/11/14 05:45:25;;;;;;;49.75;24.17;;;;;;;6.36;100.00;100897.53;5190124;28;20051;-77
2022/11/14 05:47:56;;;;;;;54.05;26.23;;;;;;;6.29;100.00;100894.16;5187328;28;20037;-77
2022/11/14 05:50:26;;;;;;;63.47;27.52;;;;;;;6.27;100.00;100876.91;5183815;28;20507;-76
2022/11/14 05:52:56;;;;;;;60.00;26.77;;;;;;;6.19;100.00;100887.41;5191537;28;20083;-77
2022/11/14 05:55:26;;;;;;;64.68;30.00;;;;;;;6.19;100.00;100882.19;5186124;28;20547;-77
2022/11/14 05:57:57;;;;;;;59.45;27.95;;;;;;;6.15;100.00;100897.81;5184582;28;20021;-77
2022/11/14 06:00:28;;;;;;;60.58;26.73;;;;;;;6.11;100.00;100896.16;5188724;28;20031;-76
2022/11/14 06:02:58;;;;;;;60.83;28.63;;;;;;;6.08;100.00;100893.59;5189545;28;20738;-77
2022/11/14 06:05:28;;;;;;;65.35;28.33;;;;;;;6.08;100.00;100888.41;5192147;28;20116;-76
2022/11/14 06:07:59;;;;;;;75.90;31.20;;;;;;;6.01;100.00;100885.03;5181822;28;20036;-77
2022/11/14 06:10:29;;;;;;;65.30;28.88;;;;;;;5.95;100.00;100879.06;5188592;28;20033;-77
2022/11/14 06:12:59;;;;;;;66.53;29.63;;;;;;;5.90;100.00;100875.66;5187689;28;20558;-77
2022/11/14 06:15:29;;;;;;;62.85;29.27;;;;;;;5.87;100.00;100878.28;5192095;28;20025;-77
2022/11/14 06:18:00;;;;;;;63.72;28.02;;;;;;;5.97;100.00;100870.38;5188249;28;20034;-76
2022/11/14 06:20:30;;;;;;;59.72;27.63;;;;;;;5.94;100.00;100880.78;5184411;28;20459;-76
2022/11/14 06:23:00;;;;;;;64.78;30.05;;;;;;;5.87;100.00;100873.09;5188880;28;20040;-77
2022/11/14 06:25:31;;;;;;;67.25;29.42;;;;;;;5.80;100.00;100876.63;5188791;28;20399;-77
2022/11/14 06:28:01;;;;;;;58.83;27.73;;;;;;;5.79;100.00;100874.94;5191741;28;20022;-77
2022/11/14 06:30:31;;;;;;;61.47;28.58;;;;;;;5.76;100.00;100859.38;5188808;28;20060;-77
2022/11/14 06:33:02;;;;;;;59.67;27.52;;;;;;;5.96;100.00;100857.44;5192228;28;20031;-77
2022/11/14 06:35:32;;;;;;;56.85;26.35;;;;;;;5.98;100.00;100868.63;5189055;28;20244;-76
2022/11/14 06:38:02;;;;;;;53.50;25.88;;;;;;;5.90;100.00;100865.28;5184205;28;20029;-77
2022/11/14 06:40:32;;;;;;;55.33;26.80;;;;;;;5.91;100.00;100867.84;5186426;28;20041;-77
2022/11/14 06:43:03;;;;;;;58.17;27.55;;;;;;;5.93;100.00;100867.84;5191440;28;20048;-76
2022/11/14 06:45:33;;;;;;;58.42;27.58;;;;;;;5.82;100.00;100864.50;5184585;28;20100;-76
2022/11/14 06:48:03;;;;;;;60.70;26.63;;;;;;;5.77;100.00;100863.69;5188027;28;20547;-76
2022/11/14 06:50:34;;;;;;;55.63;26.55;;;;;;;5.73;100.00;100865.44;5182755;28;20029;-76
2022/11/14 06:53:04;;;;;;;54.80;26.83;;;;;;;5.84;100.00;100867.94;5187830;28;20487;-76
2022/11/14 06:55:34;;;;;;;54.92;26.83;;;;;;;5.90;100.00;100875.66;5179716;28;20112;-76
2022/11/14 06:58:04;;;;;;;50.83;24.90;;;;;;;5.98;100.00;100882.47;5195461;28;20022;-76
2022/11/14 07:00:35;;;;;;;52.38;25.83;;;;;;;5.83;100.00;100877.47;5191953;28;20069;-76
2022/11/14 07:03:05;;;;;;;57.30;26.73;;;;;;;5.98;100.00;100881.59;5188728;28;20026;-77
2022/11/14 07:05:35;;;;;;;54.05;25.80;;;;;;;5.96;100.00;100873.00;5184639;28;20045;-76
2022/11/14 07:08:06;;;;;;;45.38;24.05;;;;;;;6.00;100.00;100880.72;5185655;28;20033;-76
2022/11/14 07:10:36;;;;;;;53.53;25.40;;;;;;;6.08;100.00;100881.47;5182421;28;20499;-77
2022/11/14 07:13:08;;;;;;;51.63;24.90;;;;;;;6.05;100.00;100875.47;5185473;28;20033;-77
2022/11/14 07:15:38;;;;;;;52.05;24.60;;;;;;;6.20;100.00;100868.34;5191654;28;20112;-76
2022/11/14 07:18:09;;;;;;;50.78;24.98;;;;;;;6.09;100.00;100859.00;5193729;28;20117;-77
2022/11/14 07:20:39;;;;;;;51.42;25.42;;;;;;;6.17;100.00;100854.53;5184884;28;20038;-76
2022/11/14 07:23:09;;;;;;;54.03;25.40;;;;;;;6.07;100.00;100855.56;5192774;28;20110;-77
2022/11/14 07:25:40;;;;;;;51.40;24.77;;;;;;;6.14;100.00;100855.47;5192599;28;20415;-76
2022/11/14 07:28:10;;;;;;;51.65;25.63;;;;;;;6.09;100.00;100871.97;5194684;28;20521;-76
2022/11/14 07:30:41;;;;;;;53.42;25.83;;;;;;;6.10;100.00;100876.28;5193296;28;20061;-76
2022/11/14 07:33:11;;;;;;;47.42;24.23;;;;;;;6.22;100.00;100876.97;5195190;28;20029;-77
2022/11/14 07:35:41;;;;;;;49.90;24.85;;;;;;;6.22;100.00;100886.50;5192119;28;20494;-76
2022/11/14 07:38:11;;;;;;;53.03;24.98;;;;;;;6.32;100.00;100880.28;5190275;28;20021;-76
2022/11/14 07:40:42;;;;;;;52.70;25.15;;;;;;;6.34;100.00;100881.13;5188301;28;20044;-77
2022/11/14 07:43:12;;;;;;;55.13;26.13;;;;;;;6.50;100.00;100867.06;5190452;28;20371;-76
2022/11/14 07:45:42;;;;;;;52.70;25.67;;;;;;;6.37;100.00;100879.34;5192455;28;20603;-76
2022/11/14 07:48:13;;;;;;;55.85;26.00;;;;;;;6.48;100.00;100874.88;5190249;28;20034;-77
2022/11/14 07:50:43;;;;;;;59.17;26.73;;;;;;;6.39;100.00;100885.38;5193874;28;20033;-77
2022/11/14 07:53:16;;;;;;;66.88;30.02;;;;;;;6.36;100.00;100882.84;5192379;28;20038;-76
2022/11/14 07:55:46;;;;;;;67.15;30.67;;;;;;;6.40;100.00;100896.63;5191694;28;20030;-76
2022/11/14 07:58:17;;;;;;;69.78;30.95;;;;;;;6.38;100.00;100875.00;5191726;28;20022;-77
2022/11/14 08:00:47;;;;;;;71.15;31.17;;;;;;;6.47;100.00;100872.31;5193391;28;20113;-77
2022/11/14 08:03:18;;;;;;;72.05;31.83;;;;;;;6.53;100.00;100878.25;5192790;28;20080;-77
2022/11/14 08:05:48;;;;;;;71.65;31.08;;;;;;;6.47;100.00;100875.75;5193409;28;20045;-76
2022/11/14 08:08:18;;;;;;;78.72;33.10;;;;;;;6.42;100.00;100874.94;5189225;28;20094;-77
2022/11/14 08:10:49;;;;;;;72.55;31.67;;;;;;;6.43;100.00;100883.63;5191303;28;20026;-76
2022/11/14 08:13:19;;;;;;;67.72;30.80;;;;;;;6.43;100.00;100876.66;5192447;28;20026;-76
2022/11/14 08:15:49;;;;;;;70.40;32.50;;;;;;;6.47;100.00;100872.31;5192949;28;20025;-75
2022/11/14 08:18:20;;;;;;;69.53;32.35;;;;;;;6.59;100.00;100872.13;5192391;28;20048;-76
2022/11/14 08:20:50;;;;;;;72.40;31.83;;;;;;;6.60;100.00;100871.25;5192962;28;20040;-77
2022/11/14 08:23:20;;;;;;;76.20;33.92;;;;;;;6.72;100.00;100873.63;5193422;28;20025;-76
2022/11/14 08:25:51;;;;;;;78.40;32.72;;;;;;;6.68;100.00;100871.97;5192991;28;20132;-77
2022/11/14 08:28:21;;;;;;;79.63;33.00;;;;;;;6.68;100.00;100869.38;5190344;28;20083;-76
2022/11/14 08:30:51;;;;;;;75.07;32.55;;;;;;;6.69;100.00;100868.50;5190821;28;20033;-77
2022/11/14 08:33:22;;;;;;;71.28;32.38;;;;;;;6.79;100.00;100860.53;5193037;28;20080;-77
2022/11/14 08:35:52;;;;;;;73.15;33.33;;;;;;;6.75;100.00;100863.22;5190143;28;21288;-77
2022/11/14 08:38:22;;;;;;;79.53;33.50;;;;;;;6.75;100.00;100852.84;5185595;28;20025;-77
2022/11/14 08:40:57;;;;;;;71.13;32.17;;;;;;;6.59;100.00;100852.19;5188023;28;20037;-77
2022/11/14 08:43:29;;;;;;;72.50;32.08;;;;;;;6.66;100.00;100842.56;5189535;28;20491;-77
2022/11/14 08:46:00;;;;;;;72.43;33.83;;;;;;;6.61;100.00;100845.25;5189854;28;20461;-77
2022/11/14 08:48:31;;;;;;;75.25;34.10;;;;;;;6.65;100.00;100835.69;5187595;28;20650;-77
2022/11/14 08:51:04;;;;;;;71.70;32.78;;;;;;;6.67;100.00;100829.59;5189395;28;20025;-77
2022/11/14 08:53:35;;;;;;;70.18;32.60;;;;;;;6.79;100.00;100831.97;5185393;28;20056;-77
2022/11/14 08:56:05;;;;;;;68.95;32.90;;;;;;;6.64;100.00;100829.63;5182532;28;20045;-76
2022/11/14 08:58:36;;;;;;;67.03;32.53;;;;;;;6.59;100.00;100828.00;5189030;28;20038;-77
2022/11/14 09:01:06;;;;;;;71.82;33.42;;;;;;;6.55;100.00;100828.91;5189822;28;20607;-77
2022/11/14 09:03:36;;;;;;;69.70;32.40;;;;;;;6.52;100.00;100828.94;5193918;28;20024;-76
2022/11/14 09:06:07;;;;;;;73.75;33.80;;;;;;;6.51;100.00;100829.81;5190202;28;20098;-77
2022/11/14 09:08:37;;;;;;;67.88;33.58;;;;;;;6.48;100.00;100840.25;5189477;28;20026;-76
2022/11/14 09:11:07;;;;;;;69.35;31.83;;;;;;;6.41;100.00;100831.72;5188634;28;20080;-77
2022/11/14 09:13:37;;;;;;;71.22;33.00;;;;;;;6.49;100.00;100844.56;5192740;28;20029;-77
2022/11/14 09:16:08;;;;;;;74.65;33.50;;;;;;;6.54;100.00;100834.97;5189900;28;20047;-76
2022/11/14 09:18:38;;;;;;;69.80;32.30;;;;;;;6.73;100.00;100834.66;5192536;28;20040;-77
2022/11/14 09:21:09;;;;;;;68.82;33.65;;;;;;;6.91;100.00;100828.34;5190476;28;20032;-77
2022/11/14 09:23:40;;;;;;;57.80;28.25;;;;;;;6.64;100.00;100819.25;5193568;28;20570;-76
2022/11/14 09:26:10;;;;;;;62.78;28.77;;;;;;;7.06;100.00;100817.66;5191141;28;20030;-76
2022/11/14 09:28:40;;;;;;;57.88;27.55;;;;;;;7.20;100.00;100807.88;5191826;28;20399;-77
2022/11/14 09:31:12;;;;;;;54.40;25.92;;;;;;;7.48;100.00;100812.53;5190608;28;20488;-77
2022/11/14 09:33:42;;;;;;;52.30;25.85;;;;;;;7.40;100.00;100804.91;5189361;28;20028;-76
2022/11/14 09:36:14;;;;;;;49.53;24.95;;;;;;;7.31;100.00;100809.38;5186154;28;20034;-76
2022/11/14 09:38:45;;;;;;;52.33;26.17;;;;;;;7.17;100.00;100805.34;5188589;28;20073;-77
2022/11/14 09:42:01;;;;;;;52.92;26.83;;;;;;;7.11;100.00;100800.25;5188103;28;20026;-77
2022/11/14 09:44:48;;;;;;;53.33;26.58;;;;;;;7.28;100.00;100780.84;5169607;28;20399;-77
2022/11/14 09:47:23;;;;;;;54.80;25.30;;;;;;;7.27;100.00;100754.91;5166124;28;20110;-77
2022/11/14 09:49:58;;;;;;;;;;;;;;;7.56;100.00;100762.06;5184894;28;20424;-77
2022/11/14 09:52:37;;;;;;;47.20;23.25;;;;;;;7.56;100.00;100727.44;5190145;28;19917;-77
2022/11/14 09:55:21;;;;;;;48.60;24.63;;;;;;;7.76;100.00;100715.72;5184555;28;20044;-77
2022/11/14 09:57:51;;;;;;;46.38;24.65;;;;;;;8.05;100.00;100718.50;5184205;28;20017;-77
2022/11/14 10:00:24;;;;;;;44.00;22.95;;;;;;;8.21;100.00;100719.88;5189993;28;20112;-76
2022/11/14 10:03:22;;;;;;;41.35;22.40;;;;;;;8.34;100.00;100729.13;5189048;28;20045;-77
2022/11/14 10:05:58;;;;;;;43.97;23.15;;;;;;;8.51;100.00;100739.13;5187785;28;20570;-77
2022/11/14 10:08:32;;;;;;;43.78;21.70;;;;;;;8.62;100.00;100737.97;5188834;28;20515;-77
2022/11/14 10:11:21;;;;;;;39.95;22.27;;;;;;;8.74;100.00;100737.66;5189047;28;20569;-77
2022/11/14 10:14:08;;;;;;;43.15;23.20;;;;;;;8.69;100.00;100738.69;5189539;28;20046;-77
2022/11/14 10:16:47;;;;;;;38.92;20.73;;;;;;;8.61;100.00;100731.06;5185477;28;20033;-77
2022/11/14 10:19:23;;;;;;;41.72;21.90;;;;;;;8.80;100.00;100737.50;5191334;28;20521;-77
2022/11/14 10:21:54;;;;;;;36.65;21.58;;;;;;;8.76;100.00;100756.69;5190639;28;20037;-76
2022/11/14 10:24:47;;;;;;;39.85;21.15;;;;;;;8.50;100.00;100759.13;5187960;28;20029;-77
2022/11/14 10:27:24;;;;;;;38.15;21.20;;;;;;;8.46;100.00;100761.81;5187902;28;20160;-77
2022/11/14 10:30:04;;;;;;;43.28;22.67;;;;;;;8.20;100.00;100744.22;5185265;28;20030;-77
2022/11/14 10:32:56;;;;;;;42.53;23.00;;;;;;;7.78;100.00;100739.06;5192147;28;20590;-77
2022/11/14 10:35:41;;;;;;;43.97;22.92;;;;;;;7.78;100.00;100734.75;5195050;28;20091;-77
2022/11/14 10:38:23;;;;;;;38.20;21.85;;;;;;;7.71;100.00;100730.53;5181436;28;20596;-77
2022/11/14 10:40:58;;;;;;;43.05;23.85;;;;;;;7.85;100.00;100725.91;5188904;28;20487;-77
2022/11/14 10:43:50;;;;;;;33.90;18.65;;;;;;;7.90;100.00;100728.41;5194909;28;20029;-77
2022/11/14 10:46:37;;;;;;;44.15;23.20;;;;;;;8.15;100.00;100733.03;5192169;28;20037;-77
2022/11/14 10:49:18;;;;;;;43.10;23.15;;;;;;;8.37;100.00;100739.47;5187924;28;20491;-77
2022/11/14 10:51:53;;;;;;;47.17;23.52;;;;;;;8.36;100.00;100745.56;5194906;28;20037;-77
2022/11/14 10:54:29;;;;;;;42.30;23.77;;;;;;;8.52;100.00;100744.31;5193977;28;20109;-77
2022/11/14 10:56:59;;;;;;;44.72;24.63;;;;;;;8.53;100.00;100753.81;5183987;28;20112;-77
2022/11/14 10:59:29;;;;;;;44.53;24.60;;;;;;;8.62;100.00;100753.63;5189933;28;20132;-77
2022/11/14 11:02:00;;;;;;;41.35;23.85;;;;;;;8.63;100.00;100760.53;5190888;28;20116;-77
2022/11/14 11:04:35;;;;;;;40.78;23.75;;;;;;;8.52;100.00;100756.47;5192164;28;20036;-77
2022/11/14 11:07:05;;;;;;;;;;;;;;;8.46;100.00;100752.28;5181350;28;20492;-77
2022/11/14 11:12:49;;;;;;;43.40;23.45;;;;;;;8.44;100.00;100734.97;5193481;28;20371;-77
2022/11/14 11:15:30;;;;;;;43.13;23.67;;;;;;;8.59;100.00;100722.41;5191944;28;20548;-76
2022/11/14 11:18:22;;;;;;;41.50;23.85;;;;;;;8.63;100.00;100716.25;5191479;28;20117;-77
2022/11/14 11:21:09;;;;;;;42.88;25.90;;;;;;;8.64;100.00;100717.97;5191970;28;20033;-77
2022/11/14 11:23:55;;;;;;;46.78;24.45;;;;;;;8.65;100.00;100713.59;5188994;28;20032;-77
2022/11/14 11:26:27;;;;;;;42.77;24.23;;;;;;;8.76;100.00;100715.00;5188160;28;20030;-75
2022/11/14 11:29:03;;;;;;;41.25;23.08;;;;;;;8.87;100.00;100720.81;5183254;28;20375;-77
2022/11/14 11:31:55;;;;;;;37.22;22.65;;;;;;;8.77;100.00;100706.31;5188255;28;20029;-77
2022/11/14 11:34:31;;;;;;;41.42;22.95;;;;;;;8.74;100.00;100701.16;5192371;28;20954;-77